createdAt,value
2018-08-13T00:00:46.413Z,14.00
2018-08-13T00:03:20.099Z,15.25
2018-08-13T00:05:53.105Z,14.00
2018-08-13T00:08:26.049Z,14.60
2018-08-13T00:10:59.051Z,15.10
2018-08-13T00:13:31.948Z,16.42
2018-08-13T00:16:04.950Z,16.73
2018-08-13T00:18:38.091Z,15.40
2018-08-13T00:21:11.275Z,15.77
2018-08-13T00:23:44.259Z,18.13
2018-08-13T00:26:17.243Z,17.80
2018-08-13T00:31:28.792Z,18.42
2018-08-13T00:34:01.915Z,17.30
2018-08-13T00:36:34.823Z,17.93
2018-08-13T00:39:11.090Z,17.50
2018-08-13T00:41:44.088Z,18.27
2018-08-13T00:44:17.025Z,16.53
2018-08-13T00:46:49.922Z,18.43
2018-08-13T00:49:22.831Z,18.23
2018-08-13T00:51:55.831Z,17.20
2018-08-13T00:54:28.827Z,18.23
2018-08-13T00:57:01.682Z,17.20
2018-08-13T00:59:34.584Z,16.27
2018-08-13T01:02:07.688Z,16.87
2018-08-13T01:04:40.650Z,17.23
2018-08-13T01:07:13.584Z,17.77
2018-08-13T01:09:46.506Z,16.20
2018-08-13T01:12:19.393Z,17.07
2018-08-13T01:14:52.410Z,16.57
2018-08-13T01:17:25.404Z,17.40
2018-08-13T01:19:58.361Z,18.37
2018-08-13T01:22:31.281Z,17.10
2018-08-13T01:25:04.379Z,17.87
2018-08-13T01:27:37.595Z,17.50
2018-08-13T01:30:11.218Z,18.70
2018-08-13T01:32:44.328Z,16.07
2018-08-13T01:35:17.242Z,18.23
2018-08-13T01:37:50.538Z,18.93
2018-08-13T01:40:23.391Z,19.23
2018-08-13T01:42:56.617Z,18.53
2018-08-13T01:45:29.691Z,18.67
2018-08-13T01:48:02.620Z,19.43
2018-08-13T01:50:35.531Z,18.40
2018-08-13T01:53:10.770Z,17.33
2018-08-13T01:55:43.710Z,18.20
2018-08-13T01:58:16.731Z,18.37
2018-08-13T02:00:49.950Z,18.47
2018-08-13T02:03:22.872Z,18.50
2018-08-13T02:05:55.816Z,18.60
2018-08-13T02:08:28.676Z,18.87
2018-08-13T02:11:01.675Z,18.47
2018-08-13T02:13:34.667Z,19.13
2018-08-13T02:16:07.537Z,17.83
2018-08-13T02:18:40.607Z,18.50
2018-08-13T02:21:13.557Z,17.37
2018-08-13T02:23:46.568Z,20.13
2018-08-13T02:26:19.699Z,18.15
2018-08-13T02:28:52.810Z,16.80
2018-08-13T02:31:25.824Z,19.20
2018-08-13T02:33:58.865Z,16.40
2018-08-13T02:36:31.945Z,15.40
2018-08-13T02:39:05.079Z,15.60
2018-08-13T02:41:38.259Z,16.67
2018-08-13T02:44:11.417Z,14.30
2018-08-13T02:46:44.488Z,15.90
2018-08-13T02:49:17.649Z,16.20
2018-08-13T02:51:50.777Z,14.90
2018-08-13T02:54:23.936Z,14.07
2018-08-13T02:56:57.113Z,13.70
2018-08-13T02:59:30.111Z,13.25
2018-08-13T03:02:03.047Z,13.70
2018-08-13T03:07:13.454Z,13.17
2018-08-13T03:09:46.377Z,13.60
2018-08-13T03:12:19.414Z,13.83
2018-08-13T03:14:52.240Z,13.87
2018-08-13T03:17:34.079Z,13.40
2018-08-13T03:20:07.647Z,13.03
2018-08-13T03:22:40.783Z,12.47
2018-08-13T03:25:14.322Z,12.40
2018-08-13T03:27:47.205Z,12.57
2018-08-13T03:30:20.268Z,12.82
2018-08-13T03:32:53.398Z,12.13
2018-08-13T03:35:26.342Z,11.90
2018-08-13T03:37:59.135Z,12.57
2018-08-13T03:40:32.078Z,14.20
2018-08-13T03:43:05.139Z,13.20
2018-08-13T03:45:38.094Z,13.50
2018-08-13T03:48:11.130Z,14.63
2018-08-13T03:50:44.110Z,13.57
2018-08-13T03:53:17.096Z,15.17
2018-08-13T03:55:50.001Z,14.47
2018-08-13T03:58:23.199Z,13.98
2018-08-13T04:00:56.178Z,15.13
2018-08-13T04:03:29.222Z,14.37
2018-08-13T04:06:02.331Z,15.70
2018-08-13T04:08:35.374Z,15.60
2018-08-13T04:11:08.519Z,14.67
2018-08-13T04:13:41.715Z,15.67
2018-08-13T04:16:15.167Z,15.72
2018-08-13T04:18:49.275Z,14.90
2018-08-13T04:21:22.283Z,15.48
2018-08-13T04:23:55.133Z,15.40
2018-08-13T04:26:28.070Z,14.80
2018-08-13T04:29:00.974Z,14.30
2018-08-13T04:31:33.936Z,15.07
2018-08-13T04:34:06.840Z,14.03
2018-08-13T04:36:39.903Z,13.60
2018-08-13T04:39:15.374Z,14.30
2018-08-13T04:41:48.880Z,14.07
2018-08-13T04:44:22.454Z,13.67
2018-08-13T04:46:55.362Z,11.87
2018-08-13T04:49:28.238Z,12.43
2018-08-13T04:52:01.163Z,12.97
2018-08-13T04:54:34.066Z,13.63
2018-08-13T04:57:07.011Z,13.80
2018-08-13T04:59:39.846Z,13.33
2018-08-13T05:02:12.798Z,13.37
2018-08-13T05:04:45.788Z,15.93
2018-08-13T05:07:18.789Z,14.57
2018-08-13T05:09:52.017Z,15.77
2018-08-13T05:12:24.889Z,15.10
2018-08-13T05:14:57.747Z,15.63
2018-08-13T05:17:30.735Z,16.65
2018-08-13T05:20:03.673Z,14.47
2018-08-13T05:22:36.749Z,14.97
2018-08-13T05:25:12.684Z,16.80
2018-08-13T05:27:45.667Z,16.30
2018-08-13T05:30:18.594Z,16.20
2018-08-13T05:32:51.690Z,18.87
2018-08-13T05:35:24.684Z,18.55
2018-08-13T05:37:57.677Z,19.90
2018-08-13T05:40:30.811Z,19.87
2018-08-13T05:43:04.024Z,17.13
2018-08-13T05:45:37.537Z,19.20
2018-08-13T05:48:12.307Z,22.03
2018-08-13T05:50:46.189Z,19.13
2018-08-13T05:53:19.208Z,19.43
2018-08-13T05:55:52.157Z,20.00
2018-08-13T05:58:25.144Z,19.45
2018-08-13T06:00:58.189Z,19.60
2018-08-13T06:03:31.160Z,17.40
2018-08-13T06:06:04.087Z,15.23
2018-08-13T06:08:37.066Z,13.53
2018-08-13T06:11:10.177Z,16.47
2018-08-13T06:13:43.189Z,14.33
2018-08-13T06:16:17.186Z,13.63
2018-08-13T06:18:50.141Z,14.20
2018-08-13T06:21:23.098Z,15.00
2018-08-13T06:23:56.071Z,14.53
2018-08-13T06:26:29.023Z,14.50
2018-08-13T06:29:02.066Z,14.83
2018-08-13T06:31:35.093Z,14.10
2018-08-13T06:34:08.122Z,13.90
2018-08-13T06:36:41.135Z,14.00
2018-08-13T06:39:14.957Z,13.67
2018-08-13T06:41:47.990Z,15.03
2018-08-13T06:44:20.967Z,14.15
2018-08-13T06:46:54.078Z,12.57
2018-08-13T06:49:27.121Z,13.68
2018-08-13T06:52:00.025Z,15.00
2018-08-13T06:54:33.077Z,12.10
2018-08-13T06:57:06.168Z,12.17
2018-08-13T06:59:39.191Z,13.17
2018-08-13T07:02:12.225Z,12.80
2018-08-13T07:04:45.403Z,12.93
2018-08-13T07:07:18.502Z,11.33
2018-08-13T07:09:51.529Z,11.63
2018-08-13T07:12:24.450Z,11.10
2018-08-13T07:14:57.395Z,11.53
2018-08-13T07:17:30.335Z,12.50
2018-08-13T07:20:03.177Z,12.10
2018-08-13T07:22:36.503Z,12.33
2018-08-13T07:25:10.790Z,13.13
2018-08-13T07:27:44.257Z,12.43
2018-08-13T07:30:18.052Z,12.23
2018-08-13T07:32:51.316Z,12.15
2018-08-13T07:35:24.352Z,11.45
2018-08-13T07:37:57.293Z,11.70
2018-08-13T07:40:30.526Z,11.40
2018-08-13T07:43:03.729Z,11.00
2018-08-13T07:45:36.825Z,11.13
2018-08-13T07:48:10.747Z,10.40
2018-08-13T07:50:43.755Z,11.90
2018-08-13T07:53:16.639Z,12.60
2018-08-13T07:55:49.600Z,12.37
2018-08-13T07:58:22.549Z,11.80
2018-08-13T08:00:55.758Z,11.87
2018-08-13T08:03:28.631Z,12.88
2018-08-13T08:06:01.577Z,14.87
2018-08-13T08:08:34.622Z,12.00
2018-08-13T08:11:07.878Z,10.70
2018-08-13T08:13:40.749Z,11.93
2018-08-13T08:16:13.807Z,12.03
2018-08-13T08:18:46.756Z,12.90
2018-08-13T08:21:20.027Z,10.80
2018-08-13T08:23:53.244Z,11.50
2018-08-13T08:26:26.105Z,12.60
2018-08-13T08:28:59.075Z,10.70
2018-08-13T08:31:32.071Z,11.30
2018-08-13T08:34:04.958Z,9.90
2018-08-13T08:36:37.918Z,10.73
2018-08-13T08:39:15.238Z,10.80
2018-08-13T08:41:48.369Z,10.40
2018-08-13T08:44:21.242Z,10.43
2018-08-13T08:46:54.472Z,11.00
2018-08-13T08:49:27.445Z,11.33
2018-08-13T08:52:00.525Z,10.87
2018-08-13T08:54:33.407Z,12.07
2018-08-13T08:57:06.526Z,10.03
2018-08-13T08:59:39.472Z,9.33
2018-08-13T09:02:12.820Z,9.87
2018-08-13T09:04:45.854Z,10.23
2018-08-13T09:07:18.728Z,11.20
2018-08-13T09:09:51.621Z,10.00
2018-08-13T09:12:24.720Z,10.27
2018-08-13T09:14:57.640Z,10.00
2018-08-13T09:17:39.439Z,8.93
2018-08-13T09:20:21.322Z,10.10
2018-08-13T09:23:03.199Z,11.77
2018-08-13T09:25:44.869Z,11.37
2018-08-13T09:28:26.565Z,11.07
2018-08-13T09:31:08.430Z,11.07
2018-08-13T09:33:50.226Z,13.07
2018-08-13T09:36:23.163Z,11.73
2018-08-13T09:38:56.074Z,11.63
2018-08-13T09:41:29.049Z,10.72
2018-08-13T09:44:02.119Z,10.77
2018-08-13T09:46:35.017Z,13.93
2018-08-13T09:49:08.158Z,13.03
2018-08-13T09:51:41.388Z,11.93
2018-08-13T09:54:15.365Z,11.48
2018-08-13T09:56:48.227Z,11.10
2018-08-13T09:59:21.368Z,11.12
2018-08-13T10:01:54.325Z,11.40
2018-08-13T10:04:27.483Z,15.05
2018-08-13T10:07:00.451Z,14.70
2018-08-13T10:09:33.448Z,12.10
2018-08-13T10:12:06.440Z,12.47
2018-08-13T10:14:39.275Z,11.27
2018-08-13T10:17:12.211Z,12.30
2018-08-13T10:19:45.080Z,12.63
2018-08-13T10:22:18.142Z,13.37
2018-08-13T10:24:51.111Z,13.97
2018-08-13T10:27:24.129Z,14.43
2018-08-13T10:29:57.061Z,14.90
2018-08-13T10:32:29.949Z,13.55
2018-08-13T10:35:02.920Z,13.40
2018-08-13T10:37:35.914Z,16.10
2018-08-13T10:40:11.310Z,16.57
2018-08-13T10:42:44.356Z,16.40
2018-08-13T10:45:17.783Z,17.27
2018-08-13T10:47:50.918Z,15.87
2018-08-13T10:50:23.800Z,17.25
2018-08-13T10:52:56.906Z,15.27
2018-08-13T10:55:29.967Z,13.90
2018-08-13T10:58:02.922Z,12.80
2018-08-13T11:00:35.817Z,12.37
2018-08-13T11:03:08.815Z,12.00
2018-08-13T11:05:42.252Z,12.53
2018-08-13T11:08:15.485Z,12.10
2018-08-13T11:10:48.375Z,11.60
2018-08-13T11:13:21.362Z,11.33
2018-08-13T11:15:54.546Z,11.13
2018-08-13T11:18:27.607Z,11.37
2018-08-13T11:21:00.577Z,21.20
2018-08-13T11:23:33.619Z,43.27
2018-08-13T11:26:06.680Z,31.97
2018-08-13T11:28:39.730Z,16.63
2018-08-13T11:31:12.669Z,17.53
2018-08-13T11:33:45.692Z,17.27
2018-08-13T11:36:18.525Z,15.40
2018-08-13T11:38:51.323Z,15.07
2018-08-13T11:41:24.218Z,13.93
2018-08-13T11:43:57.122Z,12.70
2018-08-13T11:46:30.128Z,14.93
2018-08-13T11:49:03.117Z,13.80
2018-08-13T11:51:36.145Z,12.37
2018-08-13T11:54:10.088Z,11.23
2018-08-13T11:56:42.997Z,10.23
2018-08-13T11:59:15.956Z,9.80
2018-08-13T12:01:48.858Z,9.80
2018-08-13T12:04:21.868Z,9.63
2018-08-13T12:06:54.994Z,10.70
2018-08-13T12:09:27.976Z,9.50
2018-08-13T12:12:00.879Z,8.77
2018-08-13T12:14:33.878Z,9.07
2018-08-13T12:17:07.662Z,8.50
2018-08-13T12:19:40.799Z,8.10
2018-08-13T12:22:13.940Z,9.03
2018-08-13T12:24:46.943Z,10.10
2018-08-13T12:27:19.839Z,10.82
2018-08-13T12:29:52.723Z,10.23
2018-08-13T12:32:25.703Z,10.10
2018-08-13T12:34:58.682Z,8.70
2018-08-13T12:37:31.665Z,8.15
2018-08-13T12:40:04.578Z,9.77
2018-08-13T12:42:37.552Z,8.93
2018-08-13T12:45:13.511Z,8.67
2018-08-13T12:47:46.426Z,8.83
2018-08-13T12:50:22.081Z,9.18
2018-08-13T12:52:55.185Z,8.53
2018-08-13T12:55:28.059Z,9.13
2018-08-13T12:58:01.095Z,9.30
2018-08-13T13:00:33.945Z,9.37
2018-08-13T13:03:06.816Z,9.37
2018-08-13T13:05:39.842Z,9.30
2018-08-13T13:08:13.231Z,9.90
2018-08-13T13:10:46.049Z,8.70
2018-08-13T13:13:19.058Z,9.80
2018-08-13T13:15:52.066Z,9.07
2018-08-13T13:18:25.129Z,7.90
2018-08-13T13:20:58.195Z,8.83
2018-08-13T13:23:31.110Z,8.23
2018-08-13T13:26:04.158Z,8.07
2018-08-13T13:28:37.247Z,8.10
2018-08-13T13:31:10.163Z,8.47
2018-08-13T13:33:43.047Z,9.23
2018-08-13T13:36:15.987Z,8.00
2018-08-13T13:38:48.957Z,6.23
2018-08-13T13:41:21.851Z,5.57
2018-08-13T13:43:54.818Z,6.03
2018-08-13T13:46:27.885Z,6.20
2018-08-13T13:49:00.951Z,6.10
2018-08-13T13:51:33.943Z,7.93
2018-08-13T13:54:08.241Z,7.20
2018-08-13T13:56:42.210Z,6.70
2018-08-13T13:59:15.538Z,7.30
2018-08-13T14:01:48.480Z,6.77
2018-08-13T14:04:21.743Z,7.05
2018-08-13T14:06:54.698Z,6.83
2018-08-13T14:09:27.744Z,6.75
2018-08-13T14:12:00.719Z,6.20
2018-08-13T14:14:33.712Z,7.20
2018-08-13T14:17:06.745Z,7.83
2018-08-13T14:19:39.728Z,6.77
2018-08-13T14:22:12.631Z,7.60
2018-08-13T14:24:45.619Z,7.40
2018-08-13T14:27:18.491Z,7.50
2018-08-13T14:29:51.601Z,7.27
2018-08-13T14:32:24.597Z,8.03
2018-08-13T14:34:57.444Z,7.60
2018-08-13T14:37:30.508Z,7.23
2018-08-13T14:40:03.505Z,7.17
2018-08-13T14:42:36.595Z,7.83
2018-08-13T14:45:11.917Z,7.47
2018-08-13T14:47:46.608Z,7.17
2018-08-13T14:50:19.609Z,7.50
2018-08-13T14:52:52.664Z,6.57
2018-08-13T14:55:26.415Z,7.20
2018-08-13T14:57:59.307Z,6.87
2018-08-13T15:00:43.735Z,6.83
2018-08-13T15:03:17.086Z,7.23
2018-08-13T15:05:50.383Z,6.63
2018-08-13T15:08:23.418Z,7.47
2018-08-13T15:10:56.390Z,6.73
2018-08-13T15:13:29.333Z,6.20
2018-08-13T15:16:02.266Z,6.43
2018-08-13T15:18:35.259Z,6.53
2018-08-13T15:21:08.233Z,6.07
2018-08-13T15:23:41.251Z,6.10
2018-08-13T15:26:15.381Z,6.55
2018-08-13T15:28:48.381Z,6.83
2018-08-13T15:31:22.367Z,6.37
2018-08-13T15:33:56.392Z,5.80
2018-08-13T15:36:30.529Z,6.67
2018-08-13T15:39:03.520Z,5.50
2018-08-13T15:41:36.619Z,6.30
2018-08-13T15:44:09.671Z,6.20
2018-08-13T15:46:42.823Z,6.47
2018-08-13T15:49:15.806Z,6.93
2018-08-13T15:51:48.718Z,6.67
2018-08-13T15:54:21.727Z,7.40
2018-08-13T15:56:54.694Z,6.90
2018-08-13T15:59:27.704Z,6.70
2018-08-13T16:02:00.720Z,5.53
2018-08-13T16:04:33.590Z,5.50
2018-08-13T16:07:07.648Z,6.67
2018-08-13T16:09:40.584Z,6.07
2018-08-13T16:12:13.730Z,6.90
2018-08-13T16:14:46.929Z,6.93
2018-08-13T16:17:20.812Z,6.80
2018-08-13T16:19:53.711Z,7.20
2018-08-13T16:22:26.686Z,6.83
2018-08-13T16:24:59.563Z,7.27
2018-08-13T16:27:32.785Z,7.80
2018-08-13T16:30:06.117Z,8.60
2018-08-13T16:32:39.119Z,8.00
2018-08-13T16:35:12.111Z,8.70
2018-08-13T16:37:45.437Z,9.00
2018-08-13T16:40:19.262Z,8.50
2018-08-13T16:42:53.406Z,8.40
2018-08-13T16:45:26.826Z,8.45
2018-08-13T16:47:59.722Z,8.30
2018-08-13T16:50:35.999Z,8.65
2018-08-13T16:53:09.061Z,8.50
2018-08-13T16:55:42.044Z,8.13
2018-08-13T16:58:15.046Z,8.10
2018-08-13T17:00:48.282Z,8.70
2018-08-13T17:03:21.327Z,8.20
2018-08-13T17:05:55.862Z,7.60
2018-08-13T17:08:28.916Z,7.03
2018-08-13T17:11:01.839Z,7.77
2018-08-13T17:13:34.714Z,7.50
2018-08-13T17:16:08.027Z,7.60
2018-08-13T17:18:40.959Z,7.50
2018-08-13T17:21:14.490Z,7.77
2018-08-13T17:23:47.474Z,7.13
2018-08-13T17:26:20.530Z,7.37
2018-08-13T17:28:53.531Z,8.33
2018-08-13T17:31:26.517Z,7.03
2018-08-13T17:33:59.934Z,8.17
2018-08-13T17:36:32.904Z,7.23
2018-08-13T17:39:06.673Z,8.47
2018-08-13T17:41:39.770Z,7.50
2018-08-13T17:44:12.827Z,7.60
2018-08-13T17:46:45.817Z,7.43
2018-08-13T17:49:18.750Z,7.17
2018-08-13T17:51:51.941Z,8.23
2018-08-13T17:54:25.000Z,6.72
2018-08-13T17:56:58.039Z,7.90
2018-08-13T17:59:30.951Z,8.10
2018-08-13T18:02:04.120Z,6.80
2018-08-13T18:04:36.930Z,7.60
2018-08-13T18:07:09.985Z,7.33
2018-08-13T18:09:43.103Z,7.27
2018-08-13T18:12:16.064Z,8.30
2018-08-13T18:14:49.024Z,8.07
2018-08-13T18:17:22.142Z,8.73
2018-08-13T18:19:55.238Z,8.53
2018-08-13T18:22:28.162Z,8.08
2018-08-13T18:25:01.138Z,8.87
2018-08-13T18:27:34.134Z,8.10
2018-08-13T18:30:08.552Z,8.20
2018-08-13T18:32:41.720Z,8.73
2018-08-13T18:35:15.577Z,8.30
2018-08-13T18:37:48.684Z,8.27
2018-08-13T18:40:23.930Z,8.77
2018-08-13T18:42:56.866Z,9.00
2018-08-13T18:45:29.922Z,8.80
2018-08-13T18:48:03.344Z,8.27
2018-08-13T18:50:36.200Z,8.67
2018-08-13T18:53:09.193Z,9.37
2018-08-13T18:55:42.180Z,8.50
2018-08-13T18:58:15.291Z,8.17
2018-08-13T19:00:51.575Z,9.93
2018-08-13T19:03:24.767Z,9.85
2018-08-13T19:05:58.265Z,9.80
2018-08-13T19:08:31.312Z,9.33
2018-08-13T19:11:04.254Z,9.40
2018-08-13T19:13:37.292Z,9.43
2018-08-13T19:16:10.292Z,9.53
2018-08-13T19:18:43.285Z,9.77
2018-08-13T19:21:16.242Z,9.47
2018-08-13T19:23:49.250Z,8.50
2018-08-13T19:26:22.204Z,9.70
2018-08-13T19:28:55.205Z,9.23
2018-08-13T19:31:29.071Z,8.90
2018-08-13T19:34:02.004Z,8.90
2018-08-13T19:36:35.024Z,8.23
2018-08-13T19:39:10.609Z,9.03
2018-08-13T19:41:43.935Z,9.63
2018-08-13T19:44:17.045Z,9.10
2018-08-13T19:46:49.999Z,8.87
2018-08-13T19:49:23.164Z,7.50
2018-08-13T19:51:56.151Z,8.70
2018-08-13T19:54:29.133Z,7.45
2018-08-13T19:57:02.154Z,8.30
2018-08-13T19:59:35.133Z,8.57
2018-08-13T20:02:08.069Z,8.27
2018-08-13T20:04:41.204Z,8.27
2018-08-13T20:07:15.140Z,7.70
2018-08-13T20:09:48.192Z,7.97
2018-08-13T20:12:21.157Z,7.65
2018-08-13T20:14:54.580Z,7.43
2018-08-13T20:17:28.603Z,7.17
2018-08-13T20:20:01.525Z,7.80
2018-08-13T20:22:34.525Z,7.47
2018-08-13T20:25:07.639Z,8.33
2018-08-13T20:27:40.985Z,7.67
2018-08-13T20:35:11.320Z,8.17
2018-08-13T20:37:44.530Z,7.73
2018-08-13T20:40:19.168Z,8.27
2018-08-13T20:42:52.604Z,7.40
2018-08-13T20:45:25.537Z,7.90
2018-08-13T20:47:58.551Z,6.80
2018-08-13T20:50:31.451Z,7.78
2018-08-13T20:53:04.445Z,8.60
2018-08-13T20:55:37.435Z,8.53
2018-08-13T20:58:10.622Z,7.60
2018-08-13T21:00:43.681Z,8.10
2018-08-13T21:03:16.598Z,7.87
2018-08-13T21:05:49.616Z,8.00
2018-08-13T21:08:23.147Z,7.87
2018-08-13T21:10:56.103Z,7.93
2018-08-13T21:13:29.116Z,7.33
2018-08-13T21:16:01.991Z,8.40
2018-08-13T21:18:35.121Z,8.63
2018-08-13T21:21:08.088Z,8.50
2018-08-13T21:23:41.255Z,7.90
2018-08-13T21:31:58.209Z,7.03
2018-08-13T21:34:31.303Z,7.67
2018-08-13T21:37:04.318Z,8.50
2018-08-13T21:39:37.252Z,7.97
2018-08-13T21:42:10.341Z,8.47
2018-08-13T21:44:43.227Z,8.50
2018-08-13T21:47:16.099Z,8.10
2018-08-13T21:49:49.038Z,8.20
2018-08-13T21:52:22.016Z,9.53
2018-08-13T21:54:54.916Z,9.83
2018-08-13T21:57:27.992Z,8.60
2018-08-13T22:00:00.962Z,8.43
2018-08-13T22:02:34.265Z,8.17
2018-08-13T22:05:07.404Z,8.13
2018-08-13T22:07:40.416Z,8.60
2018-08-13T22:10:13.887Z,8.67
2018-08-13T22:12:46.817Z,9.37
2018-08-13T22:15:37.836Z,8.15
2018-08-13T22:18:11.637Z,8.93
2018-08-13T22:20:44.713Z,8.70
2018-08-13T22:23:17.792Z,8.07
2018-08-13T22:25:50.794Z,9.50
2018-08-13T22:28:23.772Z,9.17
2018-08-13T22:30:56.954Z,8.40
2018-08-13T22:33:29.941Z,8.00
2018-08-13T22:36:03.095Z,8.63
2018-08-13T22:38:36.145Z,8.87
2018-08-13T22:41:09.408Z,8.10
2018-08-13T22:43:42.694Z,8.20
2018-08-13T22:46:15.743Z,7.70
2018-08-13T22:48:48.735Z,7.90
2018-08-13T22:51:21.556Z,8.83
2018-08-13T22:53:54.567Z,8.27
2018-08-13T22:56:27.539Z,8.10
2018-08-13T22:59:00.448Z,8.60
2018-08-13T23:01:33.636Z,8.90
2018-08-13T23:04:06.671Z,9.93
2018-08-13T23:06:39.816Z,11.20
2018-08-13T23:09:14.574Z,10.30
2018-08-13T23:11:47.475Z,11.10
2018-08-13T23:14:20.786Z,10.43
2018-08-13T23:16:53.826Z,9.77
2018-08-13T23:19:26.828Z,8.30
2018-08-13T23:21:59.829Z,9.43
2018-08-13T23:24:32.860Z,9.25
2018-08-13T23:27:06.031Z,8.67
2018-08-13T23:29:38.957Z,9.13
2018-08-13T23:32:12.207Z,8.60
2018-08-13T23:34:45.106Z,8.93
2018-08-13T23:37:17.945Z,8.20
2018-08-13T23:39:50.837Z,8.47
2018-08-13T23:42:23.913Z,7.83
2018-08-13T23:44:56.895Z,9.27
2018-08-13T23:47:29.898Z,10.28
2018-08-13T23:50:02.885Z,11.30
2018-08-13T23:52:35.928Z,9.20
2018-08-13T23:55:09.786Z,9.60
2018-08-13T23:57:42.905Z,11.50
